createdAt,value
2018-11-26T00:01:30.158Z,7.00
2018-11-26T00:03:58.481Z,7.00
2018-11-26T00:06:26.707Z,6.80
2018-11-26T00:08:54.928Z,6.90
2018-11-26T00:11:30.448Z,6.80
2018-11-26T00:13:58.674Z,6.90
2018-11-26T00:16:26.896Z,6.80
2018-11-26T00:18:55.128Z,6.80
2018-11-26T00:21:23.347Z,6.80
2018-11-26T00:23:51.565Z,6.80
2018-11-26T00:26:19.815Z,6.80
2018-11-26T00:28:48.028Z,6.80
2018-11-26T00:31:16.264Z,6.70
2018-11-26T00:33:44.599Z,6.70
2018-11-26T00:36:12.824Z,6.70
2018-11-26T00:38:41.046Z,6.70
2018-11-26T00:41:09.351Z,6.80
2018-11-26T00:43:37.575Z,6.70
2018-11-26T00:46:06.086Z,6.80
2018-11-26T00:48:34.319Z,6.80
2018-11-26T00:51:02.545Z,6.80
2018-11-26T00:53:30.760Z,6.90
2018-11-26T00:55:59.020Z,6.80
2018-11-26T00:58:27.320Z,6.80
2018-11-26T01:00:55.545Z,6.90
2018-11-26T01:03:23.787Z,6.80
2018-11-26T01:05:51.995Z,6.80
2018-11-26T01:08:20.220Z,6.80
2018-11-26T01:10:48.481Z,6.80
2018-11-26T01:13:16.703Z,6.80
2018-11-26T01:15:44.935Z,6.80
2018-11-26T01:18:13.239Z,6.80
2018-11-26T01:20:41.458Z,6.80
2018-11-26T01:23:09.668Z,6.90
2018-11-26T01:25:37.987Z,6.80
2018-11-26T01:28:06.674Z,6.80
2018-11-26T01:30:35.457Z,6.80
2018-11-26T01:33:03.739Z,6.70
2018-11-26T01:35:32.021Z,6.70
2018-11-26T01:38:00.268Z,6.80
2018-11-26T01:40:34.072Z,6.80
2018-11-26T01:43:02.284Z,6.90
2018-11-26T01:45:30.507Z,6.70
2018-11-26T01:47:58.774Z,6.70
2018-11-26T01:50:26.992Z,6.70
2018-11-26T01:52:55.208Z,6.70
2018-11-26T01:55:23.497Z,6.70
2018-11-26T01:57:51.698Z,6.70
2018-11-26T02:00:25.389Z,6.70
2018-11-26T02:02:53.787Z,6.70
2018-11-26T02:05:22.104Z,6.70
2018-11-26T02:07:50.545Z,6.60
2018-11-26T02:10:19.790Z,6.60
2018-11-26T02:12:48.013Z,6.70
2018-11-26T02:15:49.192Z,6.70
2018-11-26T02:18:17.420Z,6.60
2018-11-26T02:20:45.643Z,6.50
2018-11-26T02:23:13.884Z,6.60
2018-11-26T02:25:42.092Z,6.60
2018-11-26T02:28:10.296Z,6.60
2018-11-26T02:30:38.533Z,6.60
2018-11-26T02:33:06.771Z,6.60
2018-11-26T02:35:35.008Z,6.70
2018-11-26T02:38:03.535Z,6.70
2018-11-26T02:40:32.649Z,6.60
2018-11-26T02:43:00.872Z,6.60
2018-11-26T02:45:29.425Z,6.60
2018-11-26T02:47:57.650Z,6.60
2018-11-26T02:50:25.881Z,6.50
2018-11-26T02:52:54.245Z,6.60
2018-11-26T02:58:21.843Z,6.70
2018-11-26T03:00:50.073Z,6.70
2018-11-26T03:03:18.306Z,6.70
2018-11-26T03:05:46.536Z,6.70
2018-11-26T03:08:14.748Z,6.60
2018-11-26T03:10:42.968Z,6.50
2018-11-26T03:13:11.864Z,6.60
2018-11-26T03:15:40.123Z,6.60
2018-11-26T03:18:08.335Z,6.60
2018-11-26T03:20:36.569Z,6.60
2018-11-26T03:23:04.902Z,6.60
2018-11-26T03:25:33.204Z,6.60
2018-11-26T03:28:01.508Z,6.70
2018-11-26T03:30:29.717Z,6.70
2018-11-26T03:32:58.069Z,6.70
2018-11-26T03:35:26.317Z,6.60
2018-11-26T03:37:54.529Z,6.60
2018-11-26T03:40:22.751Z,6.60
2018-11-26T03:42:51.009Z,6.60
2018-11-26T03:47:54.012Z,6.60
2018-11-26T03:50:22.219Z,6.60
2018-11-26T03:52:50.437Z,6.60
2018-11-26T03:55:18.668Z,6.60
2018-11-26T03:57:46.884Z,6.60
2018-11-26T04:00:16.381Z,6.60
2018-11-26T04:02:44.687Z,6.60
2018-11-26T04:05:13.056Z,6.60
2018-11-26T04:07:41.317Z,6.60
2018-11-26T04:10:11.628Z,6.60
2018-11-26T04:12:39.885Z,6.60
2018-11-26T04:15:12.488Z,6.50
2018-11-26T04:17:40.715Z,6.50
2018-11-26T04:20:09.221Z,6.60
2018-11-26T04:22:37.569Z,6.60
2018-11-26T04:25:07.052Z,6.60
2018-11-26T04:27:35.423Z,6.60
2018-11-26T04:30:04.008Z,6.50
2018-11-26T04:32:32.208Z,6.50
2018-11-26T04:35:00.411Z,6.60
2018-11-26T04:37:28.668Z,6.60
2018-11-26T04:39:56.883Z,6.60
2018-11-26T04:42:25.092Z,6.60
2018-11-26T04:44:53.417Z,6.60
2018-11-26T04:47:21.640Z,6.60
2018-11-26T04:49:49.887Z,6.60
2018-11-26T04:52:18.147Z,6.50
2018-11-26T04:54:46.353Z,6.60
2018-11-26T04:57:14.603Z,6.60
2018-11-26T04:59:42.921Z,6.60
2018-11-26T05:02:11.135Z,6.60
2018-11-26T05:04:39.350Z,6.60
2018-11-26T05:07:07.688Z,6.60
2018-11-26T05:09:37.628Z,6.60
2018-11-26T05:12:07.756Z,6.70
2018-11-26T05:14:35.983Z,6.70
2018-11-26T05:17:04.250Z,6.70
2018-11-26T05:19:32.476Z,6.60
2018-11-26T05:22:00.721Z,6.60
2018-11-26T05:24:28.953Z,6.70
2018-11-26T05:26:57.556Z,6.60
2018-11-26T05:29:25.789Z,6.70
2018-11-26T05:31:54.053Z,6.60
2018-11-26T05:34:22.355Z,6.60
2018-11-26T05:36:50.613Z,6.60
2018-11-26T05:39:18.880Z,6.50
2018-11-26T05:41:47.107Z,6.60
2018-11-26T05:44:15.371Z,6.60
2018-11-26T05:46:43.580Z,6.50
2018-11-26T05:49:11.956Z,6.50
2018-11-26T05:51:40.214Z,6.60
2018-11-26T05:54:08.468Z,6.50
2018-11-26T05:56:36.708Z,6.40
2018-11-26T05:59:05.072Z,6.40
2018-11-26T06:01:33.340Z,6.50
2018-11-26T06:04:01.609Z,6.50
2018-11-26T06:06:29.860Z,6.50
2018-11-26T06:08:58.086Z,6.50
2018-11-26T06:11:26.340Z,6.60
2018-11-26T06:13:54.604Z,6.60
2018-11-26T06:16:22.853Z,6.60
2018-11-26T06:18:51.113Z,6.60
2018-11-26T06:21:19.373Z,6.60
2018-11-26T06:23:47.696Z,6.50
2018-11-26T06:26:16.006Z,6.50
2018-11-26T06:28:44.259Z,6.40
2018-11-26T06:31:12.531Z,6.50
2018-11-26T06:33:40.845Z,6.50
2018-11-26T06:36:09.084Z,6.60
2018-11-26T06:38:37.290Z,6.50
2018-11-26T06:41:05.632Z,6.60
2018-11-26T06:43:33.932Z,6.60
2018-11-26T06:46:02.125Z,6.60
2018-11-26T06:48:30.383Z,6.50
2018-11-26T06:50:58.636Z,6.60
2018-11-26T06:53:26.886Z,6.60
2018-11-26T06:55:55.173Z,6.60
2018-11-26T06:58:23.392Z,6.60
2018-11-26T07:00:51.638Z,6.60
2018-11-26T07:03:19.912Z,6.60
2018-11-26T07:05:48.160Z,6.60
2018-11-26T07:08:16.403Z,6.60
2018-11-26T07:10:44.713Z,6.60
2018-11-26T07:13:12.957Z,6.60
2018-11-26T07:15:41.191Z,6.60
2018-11-26T07:18:09.453Z,6.60
2018-11-26T07:20:37.981Z,6.60
2018-11-26T07:23:06.280Z,6.60
2018-11-26T07:25:34.555Z,6.60
2018-11-26T07:28:05.243Z,6.60
2018-11-26T07:30:33.476Z,6.60
2018-11-26T07:33:02.451Z,6.50
2018-11-26T07:35:31.640Z,6.60
2018-11-26T07:37:59.891Z,6.70
2018-11-26T07:40:28.541Z,6.70
2018-11-26T07:43:08.428Z,6.70
2018-11-26T07:45:36.738Z,6.60
2018-11-26T07:48:05.657Z,6.70
2018-11-26T07:50:34.789Z,6.70
2018-11-26T07:53:03.077Z,6.70
2018-11-26T07:55:31.316Z,6.70
2018-11-26T07:57:59.528Z,6.70
2018-11-26T08:00:28.099Z,6.70
2018-11-26T08:02:56.479Z,6.60
2018-11-26T08:05:24.730Z,6.60
2018-11-26T08:07:53.012Z,6.70
2018-11-26T08:10:22.201Z,6.70
2018-11-26T08:12:51.618Z,6.60
2018-11-26T08:15:22.449Z,6.60
2018-11-26T08:17:49.662Z,6.60
2018-11-26T08:20:17.931Z,6.60
2018-11-26T08:22:46.353Z,6.70
2018-11-26T08:25:16.792Z,6.70
2018-11-26T08:27:45.874Z,6.70
2018-11-26T08:30:16.052Z,6.70
2018-11-26T08:32:45.408Z,6.70
2018-11-26T08:35:14.692Z,6.70
2018-11-26T08:37:48.258Z,6.70
2018-11-26T08:40:48.599Z,6.70
2018-11-26T08:43:19.855Z,6.60
2018-11-26T08:45:55.147Z,6.60
2018-11-26T08:48:28.371Z,6.70
2018-11-26T08:51:00.712Z,6.70
2018-11-26T08:53:28.972Z,6.60
2018-11-26T08:56:12.865Z,6.70
2018-11-26T08:58:41.083Z,6.70
2018-11-26T09:01:14.859Z,6.70
2018-11-26T09:03:53.316Z,6.80
2018-11-26T09:06:21.968Z,6.80
2018-11-26T09:08:50.172Z,6.70
2018-11-26T09:11:18.475Z,6.60
2018-11-26T09:13:46.672Z,6.70
2018-11-26T09:16:14.966Z,6.60
2018-11-26T09:18:43.196Z,6.70
2018-11-26T09:21:11.410Z,6.80
2018-11-26T09:23:39.682Z,6.70
2018-11-26T09:26:07.905Z,6.70
2018-11-26T09:28:36.104Z,6.80
2018-11-26T09:31:04.663Z,6.90
2018-11-26T09:33:32.948Z,6.90
2018-11-26T09:36:01.156Z,6.80
2018-11-26T09:38:29.356Z,6.90
2018-11-26T09:40:57.573Z,6.90
2018-11-26T09:43:25.769Z,6.90
2018-11-26T09:45:53.967Z,7.00
2018-11-26T09:48:22.440Z,6.90
2018-11-26T09:50:50.644Z,7.00
2018-11-26T09:53:18.848Z,7.00
2018-11-26T09:55:47.061Z,7.00
2018-11-26T09:58:15.261Z,7.00
2018-11-26T10:00:43.468Z,7.00
2018-11-26T10:03:11.756Z,7.10
2018-11-26T10:05:40.055Z,7.10
2018-11-26T10:08:08.264Z,7.10
2018-11-26T10:10:36.504Z,7.10
2018-11-26T10:13:05.348Z,7.10
2018-11-26T10:15:33.576Z,7.10
2018-11-26T10:18:01.817Z,7.00
2018-11-26T10:20:30.012Z,7.10
2018-11-26T10:22:58.209Z,7.10
2018-11-26T10:25:26.464Z,7.20
2018-11-26T10:27:54.672Z,7.10
2018-11-26T10:30:23.801Z,7.20
2018-11-26T10:32:52.686Z,7.20
2018-11-26T10:35:21.488Z,7.10
2018-11-26T10:37:49.706Z,7.10
2018-11-26T10:40:21.507Z,7.20
2018-11-26T10:42:49.736Z,7.10
2018-11-26T10:45:19.075Z,7.10
2018-11-26T10:47:47.307Z,7.10
2018-11-26T10:50:17.275Z,7.00
2018-11-26T10:52:46.871Z,7.10
2018-11-26T10:55:20.247Z,7.10
2018-11-26T10:57:48.507Z,7.10
2018-11-26T11:00:22.052Z,7.00
2018-11-26T11:02:50.742Z,7.00
2018-11-26T11:05:18.951Z,7.00
2018-11-26T11:07:47.148Z,7.10
2018-11-26T11:10:24.258Z,7.10
2018-11-26T11:12:52.467Z,7.10
2018-11-26T11:15:20.871Z,7.00
2018-11-26T11:17:49.266Z,7.00
2018-11-26T11:20:19.433Z,7.10
2018-11-26T11:22:47.647Z,7.10
2018-11-26T11:25:16.691Z,7.10
2018-11-26T11:27:44.974Z,7.10
2018-11-26T11:30:18.394Z,7.10
2018-11-26T11:32:46.595Z,7.00
2018-11-26T11:35:15.396Z,7.00
2018-11-26T11:37:44.782Z,7.10
2018-11-26T11:40:16.972Z,7.00
2018-11-26T11:42:45.245Z,7.00
2018-11-26T11:45:13.958Z,7.10
2018-11-26T11:47:42.223Z,7.00
2018-11-26T11:50:13.556Z,7.00
2018-11-26T11:52:41.798Z,6.90
2018-11-26T11:55:12.161Z,6.90
2018-11-26T11:57:40.402Z,6.90
2018-11-26T12:00:50.035Z,7.00
2018-11-26T12:03:19.429Z,7.00
2018-11-26T12:05:47.637Z,6.90
2018-11-26T12:08:15.974Z,7.00
2018-11-26T12:10:44.194Z,6.90
2018-11-26T12:13:13.610Z,6.90
2018-11-26T12:15:43.313Z,6.90
2018-11-26T12:18:12.062Z,7.00
2018-11-26T12:20:40.267Z,7.10
2018-11-26T12:23:08.496Z,7.10
2018-11-26T12:25:36.809Z,7.10
2018-11-26T12:28:05.061Z,7.00
2018-11-26T12:30:34.820Z,7.00
2018-11-26T12:33:03.137Z,7.00
2018-11-26T12:35:31.358Z,7.00
2018-11-26T12:37:59.597Z,7.10
2018-11-26T12:40:27.846Z,7.00
2018-11-26T12:42:58.261Z,7.10
2018-11-26T12:45:27.802Z,7.10
2018-11-26T12:47:56.012Z,7.20
2018-11-26T12:50:24.233Z,7.10
2018-11-26T12:52:52.453Z,6.90
2018-11-26T12:55:21.755Z,6.90
2018-11-26T12:57:51.112Z,7.00
2018-11-26T13:00:23.257Z,7.00
2018-11-26T13:02:56.537Z,7.00
2018-11-26T13:05:24.765Z,7.00
2018-11-26T13:07:52.976Z,6.90
2018-11-26T13:10:22.129Z,7.00
2018-11-26T13:12:50.964Z,7.00
2018-11-26T13:15:20.461Z,6.90
2018-11-26T13:17:48.677Z,7.00
2018-11-26T13:20:22.403Z,7.10
2018-11-26T13:22:51.233Z,7.00
2018-11-26T13:25:21.893Z,7.00
2018-11-26T13:27:53.427Z,7.00
2018-11-26T13:30:24.077Z,7.00
2018-11-26T13:32:53.652Z,6.90
2018-11-26T13:35:21.870Z,7.00
2018-11-26T13:37:50.185Z,6.90
2018-11-26T13:40:18.993Z,7.00
2018-11-26T13:42:47.316Z,7.00
2018-11-26T13:45:18.829Z,7.00
2018-11-26T13:47:47.033Z,6.90
2018-11-26T13:50:18.030Z,6.90
2018-11-26T13:52:46.257Z,6.90
2018-11-26T13:55:14.471Z,7.00
2018-11-26T13:57:42.681Z,7.10
2018-11-26T14:00:13.125Z,7.10
2018-11-26T14:02:41.341Z,7.10
2018-11-26T14:05:11.477Z,7.10
2018-11-26T14:07:39.799Z,7.10
2018-11-26T14:10:11.702Z,7.20
2018-11-26T14:12:40.503Z,7.20
2018-11-26T14:15:10.433Z,7.20
2018-11-26T14:17:38.770Z,7.20
2018-11-26T14:20:10.897Z,7.20
2018-11-26T14:22:39.301Z,7.30
2018-11-26T14:25:15.863Z,7.20
2018-11-26T14:27:44.378Z,7.10
2018-11-26T14:30:30.558Z,7.20
2018-11-26T14:32:58.855Z,7.10
2018-11-26T14:35:27.090Z,7.00
2018-11-26T14:37:58.390Z,7.00
2018-11-26T14:40:30.018Z,7.00
2018-11-26T14:42:58.271Z,6.90
2018-11-26T14:45:26.481Z,6.90
2018-11-26T14:47:54.715Z,6.90
2018-11-26T14:50:22.969Z,6.90
2018-11-26T14:52:51.217Z,6.90
2018-11-26T14:55:21.959Z,6.90
2018-11-26T14:57:50.196Z,6.90
2018-11-26T15:00:19.118Z,6.80
2018-11-26T15:02:47.334Z,6.70
2018-11-26T15:05:15.812Z,6.70
2018-11-26T15:07:44.197Z,6.70
2018-11-26T15:10:14.523Z,6.90
2018-11-26T15:12:42.831Z,6.90
2018-11-26T15:15:13.285Z,6.80
2018-11-26T15:17:42.512Z,6.90
2018-11-26T15:20:15.270Z,6.80
2018-11-26T15:22:43.475Z,6.80
2018-11-26T15:25:14.149Z,6.90
2018-11-26T15:27:42.422Z,6.80
2018-11-26T15:30:15.005Z,6.80
2018-11-26T15:32:43.334Z,6.80
2018-11-26T15:35:12.919Z,6.60
2018-11-26T15:37:41.194Z,6.70
2018-11-26T15:40:10.403Z,6.70
2018-11-26T15:42:38.834Z,6.50
2018-11-26T15:45:27.996Z,6.60
2018-11-26T15:48:00.573Z,6.70
2018-11-26T15:50:28.881Z,6.50
2018-11-26T15:52:57.086Z,6.40
2018-11-26T15:55:25.369Z,6.40
2018-11-26T15:57:53.614Z,6.40
2018-11-26T16:00:24.326Z,6.50
2018-11-26T16:02:52.955Z,6.50
2018-11-26T16:05:27.766Z,6.40
2018-11-26T16:07:59.482Z,6.40
2018-11-26T16:10:27.681Z,6.40
2018-11-26T16:12:57.255Z,6.40
2018-11-26T16:15:28.025Z,6.40
2018-11-26T16:17:58.109Z,6.50
2018-11-26T16:20:26.989Z,6.50
2018-11-26T16:22:55.906Z,6.50
2018-11-26T16:25:24.661Z,6.50
2018-11-26T16:27:52.857Z,6.40
2018-11-26T16:30:21.415Z,6.40
2018-11-26T16:32:53.007Z,6.40
2018-11-26T16:35:23.479Z,6.50
2018-11-26T16:37:51.696Z,6.40
2018-11-26T16:40:19.906Z,6.30
2018-11-26T16:42:48.455Z,6.30
2018-11-26T16:45:17.785Z,6.30
2018-11-26T16:47:47.238Z,6.20
2018-11-26T16:50:16.401Z,6.10
2018-11-26T16:52:44.617Z,6.20
2018-11-26T16:55:13.645Z,6.20
2018-11-26T16:57:42.051Z,6.20
2018-11-26T17:00:19.342Z,6.20
2018-11-26T17:02:48.669Z,6.30
2018-11-26T17:05:22.566Z,6.30
2018-11-26T17:07:50.567Z,6.20
2018-11-26T17:10:18.765Z,6.10
2018-11-26T17:12:47.066Z,6.10
2018-11-26T17:15:16.822Z,6.00
2018-11-26T17:17:45.142Z,6.10
2018-11-26T17:20:14.213Z,6.00
2018-11-26T17:22:42.648Z,6.00
2018-11-26T17:25:11.762Z,6.00
2018-11-26T17:27:40.548Z,6.00
2018-11-26T17:30:15.901Z,6.00
2018-11-26T17:32:45.288Z,5.90
2018-11-26T17:35:14.493Z,5.90
2018-11-26T17:37:43.131Z,6.00
2018-11-26T17:40:13.614Z,6.00
2018-11-26T17:42:41.841Z,6.00
2018-11-26T17:45:11.417Z,6.00
2018-11-26T17:47:40.069Z,6.00
2018-11-26T17:50:16.841Z,6.00
2018-11-26T17:52:45.044Z,6.00
2018-11-26T17:55:13.265Z,5.90
2018-11-26T17:57:41.513Z,6.00
2018-11-26T18:00:12.093Z,6.00
2018-11-26T18:02:40.569Z,5.90
2018-11-26T18:05:16.876Z,5.90
2018-11-26T18:07:45.913Z,5.90
2018-11-26T18:10:15.128Z,5.90
2018-11-26T18:12:43.372Z,5.90
2018-11-26T18:15:12.841Z,5.90
2018-11-26T18:17:41.077Z,6.00
2018-11-26T18:20:13.845Z,5.90
2018-11-26T18:22:42.784Z,6.00
2018-11-26T18:25:11.524Z,6.00
2018-11-26T18:27:42.169Z,6.10
2018-11-26T18:30:14.645Z,6.00
2018-11-26T18:32:42.978Z,6.00
2018-11-26T18:35:11.277Z,5.90
2018-11-26T18:37:39.485Z,6.00
2018-11-26T18:40:12.262Z,6.00
2018-11-26T18:42:40.471Z,6.00
2018-11-26T18:45:12.655Z,5.90
2018-11-26T18:47:40.861Z,5.90
2018-11-26T18:50:12.137Z,5.90
2018-11-26T18:52:40.357Z,5.90
2018-11-26T18:55:09.405Z,5.90
2018-11-26T18:57:37.630Z,5.80
2018-11-26T19:00:12.101Z,5.80
2018-11-26T19:02:40.310Z,5.80
2018-11-26T19:05:09.857Z,5.80
2018-11-26T19:07:38.086Z,5.70
2018-11-26T19:10:10.473Z,5.70
2018-11-26T19:12:38.706Z,5.60
2018-11-26T19:15:11.802Z,5.60
2018-11-26T19:17:40.062Z,5.60
2018-11-26T19:20:10.878Z,5.60
2018-11-26T19:22:39.414Z,5.60
2018-11-26T19:25:09.479Z,5.70
2018-11-26T19:27:37.705Z,5.70
2018-11-26T19:30:09.949Z,5.70
2018-11-26T19:32:38.179Z,5.60
2018-11-26T19:35:08.225Z,5.60
2018-11-26T19:37:36.461Z,5.60
2018-11-26T19:40:11.889Z,5.60
2018-11-26T19:42:40.403Z,5.60
2018-11-26T19:45:19.654Z,5.60
2018-11-26T19:47:47.878Z,5.60
2018-11-26T19:50:17.118Z,5.60
2018-11-26T19:52:46.219Z,5.60
2018-11-26T19:55:16.037Z,5.60
2018-11-26T19:57:44.268Z,5.70
2018-11-26T20:00:18.939Z,5.70
2018-11-26T20:02:49.037Z,5.70
2018-11-26T20:05:21.637Z,5.70
2018-11-26T20:07:49.852Z,5.50
2018-11-26T20:10:18.496Z,5.50
2018-11-26T20:12:46.789Z,5.60
2018-11-26T20:15:16.422Z,5.50
2018-11-26T20:17:44.631Z,5.60
2018-11-26T20:20:12.858Z,5.60
2018-11-26T20:22:41.065Z,5.50
2018-11-26T20:25:11.196Z,5.50
2018-11-26T20:27:39.975Z,5.40
2018-11-26T20:30:11.141Z,5.50
2018-11-26T20:32:40.031Z,5.50
2018-11-26T20:35:09.653Z,5.30
2018-11-26T20:37:37.889Z,5.40
2018-11-26T20:40:10.801Z,5.50
2018-11-26T20:42:39.682Z,5.40
2018-11-26T20:45:11.984Z,5.40
2018-11-26T20:47:40.186Z,5.40
2018-11-26T20:50:14.602Z,5.40
2018-11-26T20:52:42.818Z,5.30
2018-11-26T20:55:12.845Z,5.40
2018-11-26T20:57:41.070Z,5.50
2018-11-26T21:00:12.271Z,5.50
2018-11-26T21:02:40.516Z,5.40
2018-11-26T21:05:08.801Z,5.40
2018-11-26T21:07:37.031Z,5.40
2018-11-26T21:10:07.510Z,5.40
2018-11-26T21:12:35.747Z,5.50
2018-11-26T21:15:05.721Z,5.50
2018-11-26T21:17:33.962Z,5.50
2018-11-26T21:20:02.336Z,5.60
2018-11-26T21:22:30.597Z,5.60
2018-11-26T21:24:58.849Z,5.50
2018-11-26T21:27:27.076Z,5.50
2018-11-26T21:29:55.315Z,5.50
2018-11-26T21:32:23.538Z,5.50
2018-11-26T21:34:51.781Z,5.50
2018-11-26T21:37:20.026Z,5.50
2018-11-26T21:39:48.253Z,5.40
2018-11-26T21:42:16.526Z,5.50
2018-11-26T21:44:44.737Z,5.50
2018-11-26T21:47:12.967Z,5.50
2018-11-26T21:49:41.252Z,5.60
2018-11-26T21:52:09.497Z,5.50
2018-11-26T21:54:37.713Z,5.50
2018-11-26T21:57:06.486Z,5.60
2018-11-26T21:59:34.713Z,5.60
2018-11-26T22:02:02.933Z,5.60
2018-11-26T22:04:31.190Z,5.70
2018-11-26T22:06:59.433Z,5.80
2018-11-26T22:09:27.669Z,5.70
2018-11-26T22:11:55.911Z,5.60
2018-11-26T22:14:24.129Z,5.70
2018-11-26T22:16:52.412Z,5.60
2018-11-26T22:19:20.759Z,5.60
2018-11-26T22:21:48.989Z,5.70
2018-11-26T22:24:17.221Z,5.60
2018-11-26T22:26:45.470Z,5.60
2018-11-26T22:29:13.702Z,5.60
2018-11-26T22:31:42.030Z,5.50
2018-11-26T22:34:10.309Z,5.50
2018-11-26T22:36:38.577Z,5.50
2018-11-26T22:39:09.993Z,5.60
2018-11-26T22:41:38.389Z,5.60
2018-11-26T22:44:06.609Z,5.60
2018-11-26T22:46:35.147Z,5.60
2018-11-26T22:49:03.360Z,5.60
2018-11-26T22:51:31.693Z,5.70
2018-11-26T22:53:59.923Z,5.70
2018-11-26T22:56:28.145Z,5.70
2018-11-26T22:58:56.353Z,5.70
2018-11-26T23:01:24.605Z,5.70
2018-11-26T23:03:52.822Z,5.70
2018-11-26T23:06:21.039Z,5.70
2018-11-26T23:08:49.272Z,5.70
2018-11-26T23:11:17.491Z,5.70
2018-11-26T23:13:45.700Z,5.80
2018-11-26T23:16:14.025Z,5.80
2018-11-26T23:18:42.412Z,5.70
2018-11-26T23:21:10.652Z,5.70
2018-11-26T23:23:38.878Z,5.70
2018-11-26T23:26:07.103Z,5.70
2018-11-26T23:28:35.323Z,5.70
2018-11-26T23:31:03.593Z,5.70
2018-11-26T23:33:31.805Z,5.60
2018-11-26T23:36:00.824Z,5.60
2018-11-26T23:38:29.058Z,5.70
2018-11-26T23:40:57.273Z,5.70
2018-11-26T23:43:25.486Z,5.70
2018-11-26T23:45:53.753Z,5.70
2018-11-26T23:48:21.956Z,5.70
2018-11-26T23:50:50.189Z,5.70
2018-11-26T23:53:18.433Z,5.70
2018-11-26T23:55:46.639Z,5.70
2018-11-26T23:58:14.850Z,5.70
